sensor_id;sensor_type;location;lat;lon;timestamp;pressure;altitude;pressure_sealevel;temperature;humidity
15444;BME280;7822;48.146;11.576;2023-06-14T00:01:59;94705.09;;;17.70;63.54
15444;BME280;7822;48.146;11.576;2023-06-14T00:04:27;94705.91;;;17.71;63.62
15444;BME280;7822;48.146;11.576;2023-06-14T00:06:55;94705.53;;;17.74;64.68
15444;BME280;7822;48.146;11.576;2023-06-14T00:09:23;94702.75;;;17.75;65.23
15444;BME280;7822;48.146;11.576;2023-06-14T00:11:50;94699.94;;;17.77;65.26
15444;BME280;7822;48.146;11.576;2023-06-14T00:14:18;94697.13;;;17.78;65.33
15444;BME280;7822;48.146;11.576;2023-06-14T00:16:47;94693.50;;;17.80;65.13
15444;BME280;7822;48.146;11.576;2023-06-14T00:19:14;94695.94;;;17.81;65.09
15444;BME280;7822;48.146;11.576;2023-06-14T00:21:43;94696.78;;;17.82;65.12
15444;BME280;7822;48.146;11.576;2023-06-14T00:24:10;94688.72;;;17.83;65.03
15444;BME280;7822;48.146;11.576;2023-06-14T00:26:38;94686.09;;;17.83;65.17
15444;BME280;7822;48.146;11.576;2023-06-14T00:29:05;94694.59;;;17.85;65.28
15444;BME280;7822;48.146;11.576;2023-06-14T00:31:33;94692.78;;;17.86;65.46
15444;BME280;7822;48.146;11.576;2023-06-14T00:34:02;94691.00;;;17.86;65.47
15444;BME280;7822;48.146;11.576;2023-06-14T00:36:29;94686.53;;;17.87;65.60
15444;BME280;7822;48.146;11.576;2023-06-14T00:38:57;94689.97;;;17.87;65.71
15444;BME280;7822;48.146;11.576;2023-06-14T00:41:24;94697.84;;;17.87;65.90
15444;BME280;7822;48.146;11.576;2023-06-14T00:43:53;94694.25;;;17.88;66.05
15444;BME280;7822;48.146;11.576;2023-06-14T00:46:23;94687.34;;;17.87;66.09
15444;BME280;7822;48.146;11.576;2023-06-14T00:48:50;94696.88;;;17.88;66.19
15444;BME280;7822;48.146;11.576;2023-06-14T00:51:19;94691.63;;;17.88;66.32
15444;BME280;7822;48.146;11.576;2023-06-14T00:53:47;94682.09;;;17.87;66.39
15444;BME280;7822;48.146;11.576;2023-06-14T00:56:14;94675.06;;;17.88;66.45
15444;BME280;7822;48.146;11.576;2023-06-14T00:58:43;94686.38;;;17.88;66.45
15444;BME280;7822;48.146;11.576;2023-06-14T01:01:10;94681.13;;;17.88;66.50
15444;BME280;7822;48.146;11.576;2023-06-14T01:03:38;94681.94;;;17.89;66.63
15444;BME280;7822;48.146;11.576;2023-06-14T01:06:10;94688.81;;;17.90;66.76
15444;BME280;7822;48.146;11.576;2023-06-14T01:08:45;94694.88;;;17.90;66.83
15444;BME280;7822;48.146;11.576;2023-06-14T01:11:16;94687.97;;;17.89;66.97
15444;BME280;7822;48.146;11.576;2023-06-14T01:13:46;94690.59;;;17.89;66.95
15444;BME280;7822;48.146;11.576;2023-06-14T01:16:13;94680.94;;;17.90;67.03
15444;BME280;7822;48.146;11.576;2023-06-14T01:18:41;94681.94;;;17.89;67.18
15444;BME280;7822;48.146;11.576;2023-06-14T01:21:19;94687.00;;;17.90;67.17
15444;BME280;7822;48.146;11.576;2023-06-14T01:23:49;94683.56;;;17.90;67.25
15444;BME280;7822;48.146;11.576;2023-06-14T01:26:20;94692.25;;;17.90;67.31
15444;BME280;7822;48.146;11.576;2023-06-14T01:28:48;94684.38;;;17.90;67.44
15444;BME280;7822;48.146;11.576;2023-06-14T01:31:17;94681.75;;;17.90;67.37
15444;BME280;7822;48.146;11.576;2023-06-14T01:33:47;94682.56;;;17.91;67.41
15444;BME280;7822;48.146;11.576;2023-06-14T01:36:16;94683.38;;;17.91;67.44
15444;BME280;7822;48.146;11.576;2023-06-14T01:38:44;94678.13;;;17.91;67.69
15444;BME280;7822;48.146;11.576;2023-06-14T01:41:13;94677.34;;;17.91;67.54
15444;BME280;7822;48.146;11.576;2023-06-14T01:43:41;94674.50;;;17.92;67.58
15444;BME280;7822;48.146;11.576;2023-06-14T01:46:09;94680.75;;;17.91;67.58
15444;BME280;7822;48.146;11.576;2023-06-14T01:48:38;94677.13;;;17.92;67.67
15444;BME280;7822;48.146;11.576;2023-06-14T01:51:05;94674.50;;;17.92;67.54
15444;BME280;7822;48.146;11.576;2023-06-14T01:53:33;94670.09;;;17.93;67.63
15444;BME280;7822;48.146;11.576;2023-06-14T01:56:00;94671.88;;;17.92;67.62
15444;BME280;7822;48.146;11.576;2023-06-14T01:58:29;94674.50;;;17.92;67.84
15444;BME280;7822;48.146;11.576;2023-06-14T02:00:57;94672.72;;;17.93;67.87
15444;BME280;7822;48.146;11.576;2023-06-14T02:03:27;94674.31;;;17.94;67.83
15444;BME280;7822;48.146;11.576;2023-06-14T02:05:54;94681.41;;;17.93;67.89
15444;BME280;7822;48.146;11.576;2023-06-14T02:08:22;94672.72;;;17.93;67.93
15444;BME280;7822;48.146;11.576;2023-06-14T02:10:50;94670.09;;;17.93;67.93
15444;BME280;7822;48.146;11.576;2023-06-14T02:13:18;94672.72;;;17.93;68.05
15444;BME280;7822;48.146;11.576;2023-06-14T02:15:46;94677.13;;;17.92;67.83
15444;BME280;7822;48.146;11.576;2023-06-14T02:18:17;94671.06;;;17.92;68.02
15444;BME280;7822;48.146;11.576;2023-06-14T02:20:45;94669.25;;;17.92;67.94
15444;BME280;7822;48.146;11.576;2023-06-14T02:23:12;94670.09;;;17.93;67.67
15444;BME280;7822;48.146;11.576;2023-06-14T02:25:40;94667.47;;;17.93;68.01
15444;BME280;7822;48.146;11.576;2023-06-14T02:28:07;94671.88;;;17.92;68.07
15444;BME280;7822;48.146;11.576;2023-06-14T02:30:35;94665.81;;;17.92;67.87
15444;BME280;7822;48.146;11.576;2023-06-14T02:33:04;94664.84;;;17.93;68.06
15444;BME280;7822;48.146;11.576;2023-06-14T02:35:31;94664.00;;;17.92;68.11
15444;BME280;7822;48.146;11.576;2023-06-14T02:37:59;94668.28;;;17.93;68.14
15444;BME280;7822;48.146;11.576;2023-06-14T02:40:26;94667.47;;;17.93;68.18
15444;BME280;7822;48.146;11.576;2023-06-14T02:42:54;94658.78;;;17.92;68.05
15444;BME280;7822;48.146;11.576;2023-06-14T02:45:21;94669.25;;;17.92;68.21
15444;BME280;7822;48.146;11.576;2023-06-14T02:47:49;94663.03;;;17.93;68.08
15444;BME280;7822;48.146;11.576;2023-06-14T02:50:19;94662.22;;;17.93;68.21
15444;BME280;7822;48.146;11.576;2023-06-14T02:52:47;94659.75;;;17.91;68.28
15444;BME280;7822;48.146;11.576;2023-06-14T02:55:15;94662.22;;;17.93;68.30
15444;BME280;7822;48.146;11.576;2023-06-14T02:57:43;94669.25;;;17.92;68.26
15444;BME280;7822;48.146;11.576;2023-06-14T03:00:10;94669.25;;;17.92;68.29
15444;BME280;7822;48.146;11.576;2023-06-14T03:02:40;94671.88;;;17.92;68.33
15444;BME280;7822;48.146;11.576;2023-06-14T03:05:09;94667.28;;;17.94;68.26
15444;BME280;7822;48.146;11.576;2023-06-14T03:07:38;94673.53;;;17.93;68.25
15444;BME280;7822;48.146;11.576;2023-06-14T03:10:07;94677.78;;;17.94;68.53
15444;BME280;7822;48.146;11.576;2023-06-14T03:12:36;94676.16;;;17.93;68.33
15444;BME280;7822;48.146;11.576;2023-06-14T03:15:04;94676.16;;;17.93;68.48
15444;BME280;7822;48.146;11.576;2023-06-14T03:17:32;94676.94;;;17.94;68.42
15444;BME280;7822;48.146;11.576;2023-06-14T03:20:01;94678.78;;;17.93;68.50
15444;BME280;7822;48.146;11.576;2023-06-14T03:22:29;94684.81;;;17.94;68.45
15444;BME280;7822;48.146;11.576;2023-06-14T03:25:00;94687.44;;;17.94;68.49
15444;BME280;7822;48.146;11.576;2023-06-14T03:27:30;94687.44;;;17.94;68.54
15444;BME280;7822;48.146;11.576;2023-06-14T03:29:58;94686.66;;;17.93;68.51
15444;BME280;7822;48.146;11.576;2023-06-14T03:32:26;94693.50;;;17.94;68.59
15444;BME280;7822;48.146;11.576;2023-06-14T03:34:53;94690.06;;;17.94;68.53
15444;BME280;7822;48.146;11.576;2023-06-14T03:37:21;94700.56;;;17.94;68.54
15444;BME280;7822;48.146;11.576;2023-06-14T03:39:49;94693.50;;;17.94;68.60
15444;BME280;7822;48.146;11.576;2023-06-14T03:42:18;94696.97;;;17.95;68.63
15444;BME280;7822;48.146;11.576;2023-06-14T03:44:45;94690.91;;;17.94;68.49
15444;BME280;7822;48.146;11.576;2023-06-14T03:47:13;94694.53;;;17.93;68.56
15444;BME280;7822;48.146;11.576;2023-06-14T03:49:41;94704.00;;;17.94;68.55
15444;BME280;7822;48.146;11.576;2023-06-14T03:52:08;94704.00;;;17.94;68.70
15444;BME280;7822;48.146;11.576;2023-06-14T03:54:36;94701.38;;;17.94;68.56
15444;BME280;7822;48.146;11.576;2023-06-14T03:57:07;94705.03;;;17.93;68.79
15444;BME280;7822;48.146;11.576;2023-06-14T03:59:35;94711.06;;;17.94;68.72
15444;BME280;7822;48.146;11.576;2023-06-14T04:02:04;94718.16;;;17.93;68.81
15444;BME280;7822;48.146;11.576;2023-06-14T04:04:31;94718.16;;;17.93;68.67
15444;BME280;7822;48.146;11.576;2023-06-14T04:06:59;94723.41;;;17.93;68.71
15444;BME280;7822;48.146;11.576;2023-06-14T04:09:27;94722.56;;;17.93;68.78
15444;BME280;7822;48.146;11.576;2023-06-14T04:11:54;94726.81;;;17.94;68.86
15444;BME280;7822;48.146;11.576;2023-06-14T04:14:22;94726.66;;;17.95;69.01
15444;BME280;7822;48.146;11.576;2023-06-14T04:16:51;94729.28;;;17.95;68.70
15444;BME280;7822;48.146;11.576;2023-06-14T04:19:18;94742.41;;;17.95;68.79
15444;BME280;7822;48.146;11.576;2023-06-14T04:21:46;94737.16;;;17.95;68.83
15444;BME280;7822;48.146;11.576;2023-06-14T04:24:13;94737.78;;;17.97;68.97
15444;BME280;7822;48.146;11.576;2023-06-14T04:26:42;94735.16;;;17.97;68.98
15444;BME280;7822;48.146;11.576;2023-06-14T04:29:11;94737.78;;;17.97;68.92
15444;BME280;7822;48.146;11.576;2023-06-14T04:31:40;94746.44;;;17.98;68.95
15444;BME280;7822;48.146;11.576;2023-06-14T04:34:09;94748.09;;;17.99;69.13
15444;BME280;7822;48.146;11.576;2023-06-14T04:36:43;94747.13;;;18.00;69.13
15444;BME280;7822;48.146;11.576;2023-06-14T04:39:15;94742.03;;;17.98;69.14
15444;BME280;7822;48.146;11.576;2023-06-14T04:41:44;94744.66;;;17.98;69.27
15444;BME280;7822;48.146;11.576;2023-06-14T04:44:11;94747.13;;;18.00;69.36
15444;BME280;7822;48.146;11.576;2023-06-14T04:46:39;94747.13;;;18.00;69.07
15444;BME280;7822;48.146;11.576;2023-06-14T04:49:13;94754.16;;;17.99;69.30
15444;BME280;7822;48.146;11.576;2023-06-14T04:51:42;94762.88;;;18.00;69.17
15444;BME280;7822;48.146;11.576;2023-06-14T04:54:09;94759.41;;;17.99;69.35
15444;BME280;7822;48.146;11.576;2023-06-14T04:56:39;94755.78;;;18.00;69.27
15444;BME280;7822;48.146;11.576;2023-06-14T04:59:08;94755.78;;;18.00;69.22
15444;BME280;7822;48.146;11.576;2023-06-14T05:01:37;94756.59;;;18.01;69.28
15444;BME280;7822;48.146;11.576;2023-06-14T05:04:05;94763.66;;;18.00;69.20
15444;BME280;7822;48.146;11.576;2023-06-14T05:06:34;94759.22;;;18.01;69.33
15444;BME280;7822;48.146;11.576;2023-06-14T05:09:02;94761.84;;;18.01;69.23
15444;BME280;7822;48.146;11.576;2023-06-14T05:11:30;94767.09;;;18.01;69.24
15444;BME280;7822;48.146;11.576;2023-06-14T05:13:57;94767.09;;;18.01;69.37
15444;BME280;7822;48.146;11.576;2023-06-14T05:16:25;94770.53;;;18.01;69.26
15444;BME280;7822;48.146;11.576;2023-06-14T05:18:54;94771.38;;;18.02;69.45
15444;BME280;7822;48.146;11.576;2023-06-14T05:21:21;94765.28;;;18.01;69.42
15444;BME280;7822;48.146;11.576;2023-06-14T05:23:50;94772.34;;;18.01;69.43
15444;BME280;7822;48.146;11.576;2023-06-14T05:26:18;94763.66;;;18.00;69.49
15444;BME280;7822;48.146;11.576;2023-06-14T05:28:46;94770.53;;;18.01;69.49
15444;BME280;7822;48.146;11.576;2023-06-14T05:31:14;94776.78;;;18.00;69.72
15444;BME280;7822;48.146;11.576;2023-06-14T05:33:41;94775.81;;;18.01;69.53
15444;BME280;7822;48.146;11.576;2023-06-14T05:36:09;94774.16;;;18.00;69.60
15444;BME280;7822;48.146;11.576;2023-06-14T05:38:36;94773.19;;;18.01;69.46
15444;BME280;7822;48.146;11.576;2023-06-14T05:41:05;94781.06;;;18.01;69.49
15444;BME280;7822;48.146;11.576;2023-06-14T05:43:33;94778.44;;;18.01;69.41
15444;BME280;7822;48.146;11.576;2023-06-14T05:46:00;94780.22;;;18.01;69.45
15444;BME280;7822;48.146;11.576;2023-06-14T05:48:28;94771.53;;;18.00;69.42
15444;BME280;7822;48.146;11.576;2023-06-14T05:50:58;94780.22;;;18.01;69.48
15444;BME280;7822;48.146;11.576;2023-06-14T05:53:26;94777.59;;;18.01;69.37
15444;BME280;7822;48.146;11.576;2023-06-14T05:55:54;94774.16;;;18.00;69.43
15444;BME280;7822;48.146;11.576;2023-06-14T05:58:22;94783.84;;;18.00;69.47
15444;BME280;7822;48.146;11.576;2023-06-14T06:00:50;94775.81;;;18.01;69.46
15444;BME280;7822;48.146;11.576;2023-06-14T06:03:19;94785.47;;;18.01;69.51
15444;BME280;7822;48.146;11.576;2023-06-14T06:05:47;94785.47;;;18.01;69.45
15444;BME280;7822;48.146;11.576;2023-06-14T06:08:15;94788.09;;;18.01;69.59
15444;BME280;7822;48.146;11.576;2023-06-14T06:10:43;94790.72;;;18.01;69.60
15444;BME280;7822;48.146;11.576;2023-06-14T06:13:10;94795.97;;;18.01;69.62
15444;BME280;7822;48.146;11.576;2023-06-14T06:15:39;94803.66;;;18.02;69.55
15444;BME280;7822;48.146;11.576;2023-06-14T06:18:07;94795.00;;;18.02;69.61
15444;BME280;7822;48.146;11.576;2023-06-14T06:20:34;94796.78;;;18.01;69.60
15444;BME280;7822;48.146;11.576;2023-06-14T06:23:02;94801.03;;;18.02;69.73
15444;BME280;7822;48.146;11.576;2023-06-14T06:25:30;94793.97;;;18.03;69.64
15444;BME280;7822;48.146;11.576;2023-06-14T06:27:58;94801.84;;;18.03;69.58
15444;BME280;7822;48.146;11.576;2023-06-14T06:30:25;94802.69;;;18.03;69.77
15444;BME280;7822;48.146;11.576;2023-06-14T06:32:54;94802.69;;;18.03;69.71
15444;BME280;7822;48.146;11.576;2023-06-14T06:35:22;94805.31;;;18.03;69.76
15444;BME280;7822;48.146;11.576;2023-06-14T06:37:50;94798.41;;;18.02;69.60
15444;BME280;7822;48.146;11.576;2023-06-14T06:40:17;94807.09;;;18.03;69.79
15444;BME280;7822;48.146;11.576;2023-06-14T06:42:45;94807.09;;;18.03;69.70
15444;BME280;7822;48.146;11.576;2023-06-14T06:45:13;94804.47;;;18.03;69.85
15444;BME280;7822;48.146;11.576;2023-06-14T06:47:40;94808.75;;;18.04;69.88
15444;BME280;7822;48.146;11.576;2023-06-14T06:50:10;94819.25;;;18.04;69.90
15444;BME280;7822;48.146;11.576;2023-06-14T06:52:37;94811.53;;;18.02;69.81
15444;BME280;7822;48.146;11.576;2023-06-14T06:55:05;94814.16;;;18.02;69.81
15444;BME280;7822;48.146;11.576;2023-06-14T06:57:33;94814.97;;;18.03;69.86
15444;BME280;7822;48.146;11.576;2023-06-14T07:00:00;94814.97;;;18.03;69.86
15444;BME280;7822;48.146;11.576;2023-06-14T07:02:28;94812.34;;;18.03;69.86
15444;BME280;7822;48.146;11.576;2023-06-14T07:04:57;94809.72;;;18.03;69.85
15444;BME280;7822;48.146;11.576;2023-06-14T07:07:26;94816.78;;;18.02;69.76
15444;BME280;7822;48.146;11.576;2023-06-14T07:09:53;94808.91;;;18.02;69.88
15444;BME280;7822;48.146;11.576;2023-06-14T07:12:23;94821.06;;;18.03;70.01
15444;BME280;7822;48.146;11.576;2023-06-14T07:14:51;94814.97;;;18.03;70.03
15444;BME280;7822;48.146;11.576;2023-06-14T07:17:18;94818.63;;;18.02;69.90
15444;BME280;7822;48.146;11.576;2023-06-14T07:19:46;94818.63;;;18.02;69.99
15444;BME280;7822;48.146;11.576;2023-06-14T07:22:14;94829.13;;;18.02;69.97
15444;BME280;7822;48.146;11.576;2023-06-14T07:24:42;94824.66;;;18.02;69.90
15444;BME280;7822;48.146;11.576;2023-06-14T07:27:10;94822.03;;;18.02;69.76
15444;BME280;7822;48.146;11.576;2023-06-14T07:29:41;94835.97;;;18.03;69.99
15444;BME280;7822;48.146;11.576;2023-06-14T07:32:08;94836.16;;;18.01;70.08
15444;BME280;7822;48.146;11.576;2023-06-14T07:34:36;94826.50;;;18.02;70.05
15444;BME280;7822;48.146;11.576;2023-06-14T07:37:03;94837.78;;;18.02;70.22
15444;BME280;7822;48.146;11.576;2023-06-14T07:39:31;94834.38;;;18.02;70.00
15444;BME280;7822;48.146;11.576;2023-06-14T07:42:00;94834.38;;;18.02;70.02
15444;BME280;7822;48.146;11.576;2023-06-14T07:44:29;94833.34;;;18.03;69.98
15444;BME280;7822;48.146;11.576;2023-06-14T07:46:57;94834.19;;;18.03;69.99
15444;BME280;7822;48.146;11.576;2023-06-14T07:49:26;94843.84;;;18.03;70.02
15444;BME280;7822;48.146;11.576;2023-06-14T07:51:54;94843.84;;;18.03;69.93
15444;BME280;7822;48.146;11.576;2023-06-14T07:54:21;94840.41;;;18.02;69.99
15444;BME280;7822;48.146;11.576;2023-06-14T07:56:51;94833.34;;;18.03;70.10
15444;BME280;7822;48.146;11.576;2023-06-14T07:59:20;94837.63;;;18.04;70.05
15444;BME280;7822;48.146;11.576;2023-06-14T08:01:48;94840.25;;;18.04;70.05
15444;BME280;7822;48.146;11.576;2023-06-14T08:04:15;94834.00;;;18.05;69.97
15444;BME280;7822;48.146;11.576;2023-06-14T08:06:43;94829.75;;;18.04;70.09
15444;BME280;7822;48.146;11.576;2023-06-14T08:09:12;94837.63;;;18.04;70.01
15444;BME280;7822;48.146;11.576;2023-06-14T08:11:40;94836.81;;;18.03;70.05
15444;BME280;7822;48.146;11.576;2023-06-14T08:14:08;94833.19;;;18.04;70.07
15444;BME280;7822;48.146;11.576;2023-06-14T08:16:36;94838.44;;;18.04;70.30
15444;BME280;7822;48.146;11.576;2023-06-14T08:19:04;94832.38;;;18.04;70.24
15444;BME280;7822;48.146;11.576;2023-06-14T08:21:32;94840.06;;;18.05;70.19
15444;BME280;7822;48.146;11.576;2023-06-14T08:24:00;94837.63;;;18.04;70.22
15444;BME280;7822;48.146;11.576;2023-06-14T08:26:27;94837.63;;;18.04;70.29
15444;BME280;7822;48.146;11.576;2023-06-14T08:28:56;94844.69;;;18.03;70.30
15444;BME280;7822;48.146;11.576;2023-06-14T08:31:23;94850.56;;;18.05;70.32
15444;BME280;7822;48.146;11.576;2023-06-14T08:33:52;94843.84;;;18.03;70.30
15444;BME280;7822;48.146;11.576;2023-06-14T08:36:19;94843.69;;;18.04;70.27
15444;BME280;7822;48.146;11.576;2023-06-14T08:38:49;94855.19;;;18.03;70.33
15444;BME280;7822;48.146;11.576;2023-06-14T08:41:20;94855.19;;;18.03;70.34
15444;BME280;7822;48.146;11.576;2023-06-14T08:43:49;94858.63;;;18.04;70.23
15444;BME280;7822;48.146;11.576;2023-06-14T08:46:17;94855.19;;;18.03;70.31
15444;BME280;7822;48.146;11.576;2023-06-14T08:48:47;94858.63;;;18.04;70.30
15444;BME280;7822;48.146;11.576;2023-06-14T08:51:17;94858.78;;;18.02;70.36
15444;BME280;7822;48.146;11.576;2023-06-14T08:53:45;94851.72;;;18.03;70.23
15444;BME280;7822;48.146;11.576;2023-06-14T08:56:14;94845.50;;;18.04;70.32
15444;BME280;7822;48.146;11.576;2023-06-14T08:58:43;94856.97;;;18.03;70.34
15444;BME280;7822;48.146;11.576;2023-06-14T09:01:12;94854.34;;;18.03;70.36
15444;BME280;7822;48.146;11.576;2023-06-14T09:03:41;94850.91;;;18.02;70.33
15444;BME280;7822;48.146;11.576;2023-06-14T09:06:08;94856.97;;;18.03;70.24
15444;BME280;7822;48.146;11.576;2023-06-14T09:08:41;94845.66;;;18.02;70.29
15444;BME280;7822;48.146;11.576;2023-06-14T09:11:10;94841.22;;;18.03;70.53
15444;BME280;7822;48.146;11.576;2023-06-14T09:13:38;94853.53;;;18.02;70.52
15444;BME280;7822;48.146;11.576;2023-06-14T09:16:06;94865.69;;;18.03;70.41
15444;BME280;7822;48.146;11.576;2023-06-14T09:18:34;94859.44;;;18.04;70.45
15444;BME280;7822;48.146;11.576;2023-06-14T09:21:02;94861.25;;;18.04;70.39
15444;BME280;7822;48.146;11.576;2023-06-14T09:23:29;94858.63;;;18.04;70.53
15444;BME280;7822;48.146;11.576;2023-06-14T09:26:02;94856.97;;;18.03;70.48
15444;BME280;7822;48.146;11.576;2023-06-14T09:28:33;94853.38;;;18.04;70.49
15444;BME280;7822;48.146;11.576;2023-06-14T09:31:00;94854.19;;;18.04;70.53
15444;BME280;7822;48.146;11.576;2023-06-14T09:33:28;94843.84;;;18.03;70.59
15444;BME280;7822;48.146;11.576;2023-06-14T09:35:56;94862.22;;;18.03;70.48
15444;BME280;7822;48.146;11.576;2023-06-14T09:38:24;94861.41;;;18.02;70.67
15444;BME280;7822;48.146;11.576;2023-06-14T09:40:51;94857.81;;;18.03;70.53
15444;BME280;7822;48.146;11.576;2023-06-14T09:43:20;94857.81;;;18.03;70.60
15444;BME280;7822;48.146;11.576;2023-06-14T09:45:48;94862.06;;;18.04;70.77
15444;BME280;7822;48.146;11.576;2023-06-14T09:48:15;94866.50;;;18.04;70.64
15444;BME280;7822;48.146;11.576;2023-06-14T09:50:45;94864.84;;;18.03;70.63
15444;BME280;7822;48.146;11.576;2023-06-14T09:53:13;94873.56;;;18.03;70.69
15444;BME280;7822;48.146;11.576;2023-06-14T09:55:41;94874.38;;;18.04;70.80
15444;BME280;7822;48.146;11.576;2023-06-14T09:58:09;94869.28;;;18.02;70.91
15444;BME280;7822;48.146;11.576;2023-06-14T10:00:39;94872.56;;;18.04;70.79
15444;BME280;7822;48.146;11.576;2023-06-14T10:03:11;94873.56;;;18.03;70.90
15444;BME280;7822;48.146;11.576;2023-06-14T10:05:40;94871.91;;;18.02;70.80
15444;BME280;7822;48.146;11.576;2023-06-14T10:08:09;94863.06;;;18.03;70.80
15444;BME280;7822;48.146;11.576;2023-06-14T10:10:38;94860.44;;;18.03;70.72
15444;BME280;7822;48.146;11.576;2023-06-14T10:13:06;94864.84;;;18.03;70.82
15444;BME280;7822;48.146;11.576;2023-06-14T10:15:35;94861.25;;;18.04;70.90
15444;BME280;7822;48.146;11.576;2023-06-14T10:18:07;94859.59;;;18.03;70.98
15444;BME280;7822;48.146;11.576;2023-06-14T10:20:41;94858.78;;;18.02;70.81
15444;BME280;7822;48.146;11.576;2023-06-14T10:23:13;94858.78;;;18.02;70.74
15444;BME280;7822;48.146;11.576;2023-06-14T10:25:43;94864.84;;;18.03;70.80
15444;BME280;7822;48.146;11.576;2023-06-14T10:28:16;94862.22;;;18.03;70.70
15444;BME280;7822;48.146;11.576;2023-06-14T10:31:03;94856.97;;;18.03;71.02
15444;BME280;7822;48.146;11.576;2023-06-14T10:33:32;94855.38;;;18.02;70.92
15444;BME280;7822;48.146;11.576;2023-06-14T10:36:09;94856.34;;;18.01;71.05
15444;BME280;7822;48.146;11.576;2023-06-14T10:38:37;94862.22;;;18.03;71.04
15444;BME280;7822;48.146;11.576;2023-06-14T10:41:05;94860.63;;;18.02;71.00
15444;BME280;7822;48.146;11.576;2023-06-14T10:43:32;94854.53;;;18.01;70.98
15444;BME280;7822;48.146;11.576;2023-06-14T10:46:13;94850.13;;;18.02;70.86
15444;BME280;7822;48.146;11.576;2023-06-14T10:48:42;94862.41;;;18.01;70.93
15444;BME280;7822;48.146;11.576;2023-06-14T10:51:17;94856.16;;;18.02;70.99
15444;BME280;7822;48.146;11.576;2023-06-14T10:53:47;94857.16;;;18.01;71.02
15444;BME280;7822;48.146;11.576;2023-06-14T10:56:26;94861.41;;;18.02;71.11
15444;BME280;7822;48.146;11.576;2023-06-14T10:58:54;94863.25;;;18.02;70.93
15444;BME280;7822;48.146;11.576;2023-06-14T11:01:28;94850.91;;;18.02;71.09
15444;BME280;7822;48.146;11.576;2023-06-14T11:04:06;94854.34;;;18.03;70.97
15444;BME280;7822;48.146;11.576;2023-06-14T11:06:38;94855.19;;;18.03;70.96
15444;BME280;7822;48.146;11.576;2023-06-14T11:09:24;94843.03;;;18.02;70.87
15444;BME280;7822;48.146;11.576;2023-06-14T11:11:56;94843.84;;;18.03;71.28
15444;BME280;7822;48.146;11.576;2023-06-14T11:14:24;94845.50;;;18.04;70.91
15444;BME280;7822;48.146;11.576;2023-06-14T11:16:51;94854.34;;;18.03;71.08
15444;BME280;7822;48.146;11.576;2023-06-14T11:19:20;94857.63;;;18.05;70.96
15444;BME280;7822;48.146;11.576;2023-06-14T11:21:48;94852.38;;;18.05;71.00
15444;BME280;7822;48.146;11.576;2023-06-14T11:24:16;94855.81;;;18.05;71.15
15444;BME280;7822;48.146;11.576;2023-06-14T11:26:46;94861.06;;;18.05;71.14
15444;BME280;7822;48.146;11.576;2023-06-14T11:29:14;94857.47;;;18.06;71.17
15444;BME280;7822;48.146;11.576;2023-06-14T11:31:43;94847.94;;;18.05;71.04
15444;BME280;7822;48.146;11.576;2023-06-14T11:34:11;94842.69;;;18.05;71.03
15444;BME280;7822;48.146;11.576;2023-06-14T11:36:40;94860.09;;;18.06;71.09
15444;BME280;7822;48.146;11.576;2023-06-14T11:39:09;94848.75;;;18.06;71.16
15444;BME280;7822;48.146;11.576;2023-06-14T11:41:37;94840.88;;;18.06;71.18
15444;BME280;7822;48.146;11.576;2023-06-14T11:44:05;94841.72;;;18.06;71.09
15444;BME280;7822;48.146;11.576;2023-06-14T11:46:33;94834.81;;;18.05;71.16
15444;BME280;7822;48.146;11.576;2023-06-14T11:49:01;94836.47;;;18.06;71.24
15444;BME280;7822;48.146;11.576;2023-06-14T11:51:31;94835.63;;;18.06;71.19
15444;BME280;7822;48.146;11.576;2023-06-14T11:54:00;94837.25;;;18.07;71.28
15444;BME280;7822;48.146;11.576;2023-06-14T11:56:29;94839.88;;;18.07;71.27
15444;BME280;7822;48.146;11.576;2023-06-14T11:58:57;94840.88;;;18.06;71.18
15444;BME280;7822;48.146;11.576;2023-06-14T12:01:25;94838.25;;;18.06;71.25
15444;BME280;7822;48.146;11.576;2023-06-14T12:03:53;94836.47;;;18.06;71.15
15444;BME280;7822;48.146;11.576;2023-06-14T12:06:27;94840.06;;;18.05;71.31
15444;BME280;7822;48.146;11.576;2023-06-14T12:09:02;94840.88;;;18.06;71.09
15444;BME280;7822;48.146;11.576;2023-06-14T12:11:32;94839.09;;;18.06;71.11
15444;BME280;7822;48.146;11.576;2023-06-14T12:13:59;94843.50;;;18.06;71.19
15444;BME280;7822;48.146;11.576;2023-06-14T12:16:31;94839.25;;;18.05;71.16
15444;BME280;7822;48.146;11.576;2023-06-14T12:19:08;94839.25;;;18.05;71.07
15444;BME280;7822;48.146;11.576;2023-06-14T12:21:37;94835.63;;;18.06;71.09
15444;BME280;7822;48.146;11.576;2023-06-14T12:24:08;94828.59;;;18.06;71.24
15444;BME280;7822;48.146;11.576;2023-06-14T12:26:39;94820.72;;;18.06;71.27
15444;BME280;7822;48.146;11.576;2023-06-14T12:29:07;94832.00;;;18.07;71.24
15444;BME280;7822;48.146;11.576;2023-06-14T12:31:34;94827.75;;;18.06;71.24
15444;BME280;7822;48.146;11.576;2023-06-14T12:34:02;94824.13;;;18.07;71.30
15444;BME280;7822;48.146;11.576;2023-06-14T12:36:30;94828.59;;;18.06;71.34
15444;BME280;7822;48.146;11.576;2023-06-14T12:38:58;94831.22;;;18.06;71.43
15444;BME280;7822;48.146;11.576;2023-06-14T12:41:27;94832.00;;;18.07;71.45
15444;BME280;7822;48.146;11.576;2023-06-14T12:43:55;94829.38;;;18.07;71.39
15444;BME280;7822;48.146;11.576;2023-06-14T12:46:24;94833.00;;;18.06;71.38
15444;BME280;7822;48.146;11.576;2023-06-14T12:48:52;94832.00;;;18.07;71.26
15444;BME280;7822;48.146;11.576;2023-06-14T12:51:19;94830.19;;;18.07;71.24
15444;BME280;7822;48.146;11.576;2023-06-14T12:53:47;94837.25;;;18.07;71.22
15444;BME280;7822;48.146;11.576;2023-06-14T12:56:15;94826.75;;;18.07;71.29
15444;BME280;7822;48.146;11.576;2023-06-14T12:58:44;94838.91;;;18.08;71.24
15444;BME280;7822;48.146;11.576;2023-06-14T13:01:11;94832.81;;;18.07;71.01
15444;BME280;7822;48.146;11.576;2023-06-14T13:03:39;94841.53;;;18.08;71.50
15444;BME280;7822;48.146;11.576;2023-06-14T13:06:06;94845.94;;;18.07;71.34
15444;BME280;7822;48.146;11.576;2023-06-14T13:08:34;94842.50;;;18.07;71.48